createdAt,value
2022-08-03T00:02:23.185Z,2.50
2022-08-03T00:07:24.733Z,2.88
2022-08-03T00:12:26.277Z,2.78
2022-08-03T00:17:27.900Z,2.78
2022-08-03T00:22:29.490Z,3.03
2022-08-03T00:27:32.591Z,3.80
2022-08-03T00:32:34.296Z,2.70
2022-08-03T00:37:41.260Z,3.00
2022-08-03T00:42:47.006Z,3.85
2022-08-03T00:47:49.021Z,3.50
2022-08-03T00:52:52.556Z,2.67
2022-08-03T00:57:54.474Z,3.55
2022-08-03T01:02:56.067Z,2.95
2022-08-03T01:08:03.668Z,3.63
2022-08-03T01:14:01.558Z,3.63
2022-08-03T01:18:53.214Z,3.50
2022-08-03T01:24:17.353Z,3.47
2022-08-03T01:29:36.081Z,2.75
2022-08-03T01:34:43.484Z,3.60
2022-08-03T01:39:45.314Z,3.05
2022-08-03T01:44:47.968Z,3.33
2022-08-03T01:49:50.991Z,3.33
2022-08-03T01:54:53.615Z,3.50
2022-08-03T01:59:57.123Z,3.00
2022-08-03T02:05:00.796Z,3.88
2022-08-03T02:10:05.905Z,3.33
2022-08-03T02:15:08.152Z,3.08
2022-08-03T02:20:13.366Z,3.45
2022-08-03T02:25:17.577Z,3.10
2022-08-03T02:30:19.931Z,3.55
2022-08-03T02:35:24.315Z,3.42
2022-08-03T02:40:29.325Z,2.63
2022-08-03T02:45:35.228Z,3.33
2022-08-03T02:50:37.280Z,3.15
2022-08-03T02:55:43.145Z,3.42
2022-08-03T03:00:48.798Z,3.72
2022-08-03T03:05:54.594Z,3.30
2022-08-03T03:11:01.521Z,3.00
2022-08-03T03:16:06.043Z,3.30
2022-08-03T03:21:09.607Z,3.45
2022-08-03T03:26:13.869Z,3.42
2022-08-03T03:31:15.567Z,3.20
2022-08-03T03:36:17.311Z,3.03
2022-08-03T03:41:18.902Z,3.67
2022-08-03T03:46:22.569Z,3.22
2022-08-03T03:51:24.101Z,2.85
2022-08-03T03:56:25.969Z,3.20
2022-08-03T04:01:27.672Z,3.70
2022-08-03T04:06:29.288Z,3.85
2022-08-03T04:11:38.202Z,3.72
2022-08-03T04:16:44.021Z,3.33
2022-08-03T04:21:49.805Z,3.25
2022-08-03T04:26:52.903Z,3.03
2022-08-03T04:31:57.504Z,3.22
2022-08-03T04:37:01.438Z,3.65
2022-08-03T04:42:08.545Z,3.13
2022-08-03T04:47:10.718Z,3.00
2022-08-03T04:52:12.395Z,3.33
2022-08-03T04:57:22.092Z,3.40
2022-08-03T05:02:25.246Z,3.17
2022-08-03T05:07:35.651Z,4.80
2022-08-03T05:12:38.735Z,5.05
2022-08-03T05:17:41.354Z,5.40
2022-08-03T05:22:43.035Z,5.40
2022-08-03T05:27:44.702Z,5.18
2022-08-03T05:32:46.387Z,4.60
2022-08-03T05:37:54.593Z,3.50
2022-08-03T05:42:56.785Z,3.50
2022-08-03T05:47:59.664Z,2.88
2022-08-03T05:53:01.395Z,2.78
2022-08-03T05:58:03.014Z,2.70
2022-08-03T06:03:04.739Z,3.13
2022-08-03T06:08:06.399Z,2.50
2022-08-03T06:13:08.099Z,2.13
2022-08-03T06:18:09.904Z,2.72
2022-08-03T06:23:15.917Z,2.15
2022-08-03T06:28:51.866Z,2.50
2022-08-03T06:34:31.357Z,2.60
2022-08-03T06:39:05.771Z,2.15
2022-08-03T06:44:10.295Z,2.28
2022-08-03T06:49:12.133Z,2.38
2022-08-03T06:54:13.837Z,2.88
2022-08-03T07:00:10.275Z,2.70
2022-08-03T07:04:37.731Z,2.78
2022-08-03T07:09:39.347Z,2.95
2022-08-03T07:14:43.400Z,2.80
2022-08-03T07:19:45.136Z,1.92
2022-08-03T07:24:46.761Z,3.00
2022-08-03T07:29:48.480Z,2.50
2022-08-03T07:34:50.486Z,2.63
2022-08-03T07:39:52.100Z,2.50
2022-08-03T07:44:54.022Z,2.35
2022-08-03T07:49:56.448Z,2.65
2022-08-03T07:54:58.255Z,2.83
2022-08-03T08:00:02.173Z,2.08
2022-08-03T08:05:13.596Z,2.27
2022-08-03T08:10:15.562Z,2.22
2022-08-03T08:15:17.362Z,2.50
2022-08-03T08:20:28.160Z,2.25
2022-08-03T08:25:33.543Z,2.30
2022-08-03T08:30:35.354Z,1.98
2022-08-03T08:35:37.275Z,1.90
2022-08-03T08:40:38.978Z,1.98
2022-08-03T08:45:41.507Z,1.80
2022-08-03T08:50:43.586Z,2.03
2022-08-03T08:55:59.116Z,2.55
2022-08-03T09:01:02.248Z,2.15
2022-08-03T09:06:04.341Z,2.08
2022-08-03T09:11:05.994Z,1.60
2022-08-03T09:16:10.905Z,1.80
2022-08-03T09:21:34.988Z,1.63
2022-08-03T09:26:37.865Z,1.48
2022-08-03T09:31:45.055Z,2.10
2022-08-03T09:36:51.334Z,1.70
2022-08-03T09:42:10.515Z,2.38
2022-08-03T09:47:14.204Z,1.90
2022-08-03T09:52:33.235Z,1.88
2022-08-03T09:57:43.594Z,1.80
2022-08-03T10:02:46.249Z,1.35
2022-08-03T10:07:49.591Z,1.70
2022-08-03T10:12:51.978Z,2.60
2022-08-03T10:17:53.687Z,3.13
2022-08-03T10:22:56.260Z,2.60
2022-08-03T10:28:02.027Z,2.23
2022-08-03T10:33:51.040Z,2.50
2022-08-03T10:38:57.003Z,2.22
2022-08-03T10:44:17.706Z,1.98
2022-08-03T10:49:32.821Z,1.83
2022-08-03T10:54:44.941Z,2.10
2022-08-03T10:59:49.529Z,2.08
2022-08-03T11:05:30.166Z,2.53
2022-08-03T11:10:32.572Z,1.75
2022-08-03T11:15:34.825Z,1.50
2022-08-03T11:20:47.643Z,1.85
2022-08-03T11:26:09.104Z,1.63
2022-08-03T11:31:51.493Z,2.00
2022-08-03T11:37:24.571Z,1.70
2022-08-03T11:42:27.844Z,2.50
2022-08-03T11:47:30.179Z,2.17
2022-08-03T11:52:38.468Z,3.03
2022-08-03T11:59:17.464Z,2.42
2022-08-03T12:03:03.560Z,2.42
2022-08-03T12:08:07.026Z,2.97
2022-08-03T12:14:08.386Z,2.75
2022-08-03T12:18:30.603Z,2.25
2022-08-03T12:23:36.077Z,2.53
2022-08-03T12:28:49.897Z,3.38
2022-08-03T12:34:04.219Z,2.97
2022-08-03T12:39:08.032Z,2.42
2022-08-03T12:44:10.117Z,2.90
2022-08-03T12:49:14.641Z,1.63
2022-08-03T12:54:24.586Z,2.08
2022-08-03T12:59:34.804Z,2.95
2022-08-03T13:04:37.309Z,2.38
2022-08-03T13:09:41.954Z,2.38
2022-08-03T13:14:45.945Z,2.08
2022-08-03T13:19:48.942Z,2.08
2022-08-03T13:24:53.125Z,2.03
2022-08-03T13:29:56.098Z,2.58
2022-08-03T13:40:03.059Z,1.52
2022-08-03T13:45:06.754Z,1.02
2022-08-03T13:50:08.455Z,1.97
2022-08-03T13:55:10.186Z,1.60
2022-08-03T14:00:12.339Z,1.50
2022-08-03T14:05:13.987Z,1.20
2022-08-03T14:10:15.679Z,1.50
2022-08-03T14:15:17.342Z,1.27
2022-08-03T14:20:37.228Z,1.50
2022-08-03T14:25:44.533Z,1.92
2022-08-03T14:30:53.096Z,1.65
2022-08-03T14:35:55.138Z,1.40
2022-08-03T14:40:56.782Z,1.40
2022-08-03T14:45:58.445Z,1.10
2022-08-03T14:51:00.150Z,1.17
2022-08-03T14:56:05.199Z,1.52
2022-08-03T15:02:02.721Z,1.55
2022-08-03T15:06:31.258Z,1.40
2022-08-03T15:11:32.957Z,1.60
2022-08-03T15:16:34.606Z,1.45
2022-08-03T15:21:46.771Z,1.33
2022-08-03T15:26:49.129Z,1.53
2022-08-03T15:31:50.751Z,1.30
2022-08-03T15:36:52.388Z,1.48
2022-08-03T15:41:54.122Z,1.30
2022-08-03T15:46:55.754Z,1.08
2022-08-03T15:51:57.422Z,1.35
2022-08-03T15:56:59.081Z,1.45
2022-08-03T16:02:00.872Z,1.13
2022-08-03T16:07:02.701Z,1.00
2022-08-03T16:12:04.683Z,1.52
2022-08-03T16:17:06.292Z,1.50
2022-08-03T16:22:08.076Z,1.60
2022-08-03T16:27:17.305Z,1.20
2022-08-03T16:32:33.108Z,1.40
2022-08-03T16:37:38.611Z,1.40
2022-08-03T16:42:44.387Z,1.50
2022-08-03T16:47:45.956Z,1.73
2022-08-03T16:52:47.843Z,1.52
2022-08-03T16:57:58.670Z,1.20
2022-08-03T17:03:18.591Z,1.60
2022-08-03T17:08:26.900Z,2.30
2022-08-03T17:13:39.177Z,1.95
2022-08-03T17:18:56.035Z,1.95
2022-08-03T17:24:03.326Z,1.95
2022-08-03T17:29:11.317Z,1.38
2022-08-03T17:34:14.824Z,1.45
2022-08-03T17:39:27.063Z,1.15
2022-08-03T17:44:46.428Z,1.42
2022-08-03T17:49:48.975Z,1.40
2022-08-03T17:55:55.170Z,1.65
2022-08-03T18:00:42.690Z,1.25
2022-08-03T18:06:11.085Z,1.38
2022-08-03T18:11:17.818Z,1.92
2022-08-03T18:16:27.760Z,1.30
2022-08-03T18:26:51.671Z,1.58
2022-08-03T18:32:02.737Z,1.55
2022-08-03T18:37:07.664Z,1.00
2022-08-03T18:42:09.865Z,1.60
2022-08-03T18:47:54.868Z,1.02
2022-08-03T18:53:23.343Z,1.10
2022-08-03T18:59:02.401Z,1.40
2022-08-03T19:04:15.413Z,1.60
2022-08-03T19:09:45.554Z,1.45
2022-08-03T19:14:53.570Z,0.80
2022-08-03T19:19:58.322Z,1.02
2022-08-03T19:25:04.590Z,1.30
2022-08-03T19:30:20.012Z,1.45
2022-08-03T19:35:46.973Z,1.08
2022-08-03T19:40:52.640Z,1.10
2022-08-03T19:46:05.866Z,1.25
2022-08-03T19:51:12.483Z,1.38
2022-08-03T19:56:18.973Z,0.82
2022-08-03T20:01:21.933Z,1.10
2022-08-03T20:06:23.697Z,1.20
2022-08-03T20:11:29.033Z,1.27
2022-08-03T20:16:30.739Z,1.20
2022-08-03T20:21:33.945Z,1.10
2022-08-03T20:26:42.141Z,1.60
2022-08-03T20:31:44.899Z,1.42
2022-08-03T20:36:46.609Z,1.20
2022-08-03T20:41:48.231Z,1.90
2022-08-03T20:46:53.378Z,1.15
2022-08-03T20:52:18.701Z,0.80
2022-08-03T20:57:20.811Z,1.30
2022-08-03T21:02:30.001Z,1.20
2022-08-03T21:08:04.160Z,1.48
2022-08-03T21:12:57.780Z,1.90
2022-08-03T21:13:22.604Z,1.10
2022-08-03T21:18:26.426Z,1.80
2022-08-03T21:23:39.827Z,1.77
2022-08-03T21:28:52.037Z,1.40
2022-08-03T21:33:59.453Z,1.75
2022-08-03T21:39:02.882Z,1.60
2022-08-03T21:44:05.824Z,1.40
2022-08-03T21:50:05.268Z,1.10
2022-08-03T21:54:37.226Z,1.95
2022-08-03T21:59:45.433Z,1.40
2022-08-03T22:04:55.620Z,1.63
2022-08-03T22:10:01.325Z,1.55
2022-08-03T22:15:06.822Z,1.85
2022-08-03T22:20:11.088Z,1.40
2022-08-03T22:25:15.730Z,1.80
2022-08-03T22:30:19.100Z,1.27
2022-08-03T22:35:21.566Z,2.33
2022-08-03T22:40:23.815Z,1.35
2022-08-03T22:46:07.275Z,1.70
2022-08-03T22:50:48.278Z,1.70
2022-08-03T22:55:51.258Z,1.60
2022-08-03T23:01:08.089Z,2.17
2022-08-03T23:06:09.879Z,1.23
2022-08-03T23:11:11.989Z,1.58
2022-08-03T23:16:15.934Z,1.77
2022-08-03T23:21:59.797Z,1.58
2022-08-03T23:26:53.662Z,1.52
2022-08-03T23:31:57.310Z,1.80
2022-08-03T23:37:01.838Z,1.50
2022-08-03T23:42:04.219Z,1.40
2022-08-03T23:47:05.817Z,2.10
2022-08-03T23:52:19.674Z,1.75
2022-08-03T23:57:36.876Z,1.80
